createdAt,value
2018-03-16T00:02:26.565Z,7.70
2018-03-16T00:04:54.692Z,7.70
2018-03-16T00:07:23.624Z,7.60
2018-03-16T00:09:52.714Z,7.50
2018-03-16T00:12:20.993Z,7.50
2018-03-16T00:14:49.224Z,7.40
2018-03-16T00:17:17.292Z,7.40
2018-03-16T00:19:46.230Z,7.30
2018-03-16T00:22:16.141Z,7.30
2018-03-16T00:24:45.032Z,7.30
2018-03-16T00:27:13.189Z,7.30
2018-03-16T00:29:41.344Z,7.40
2018-03-16T00:32:10.233Z,7.30
2018-03-16T00:34:39.165Z,7.40
2018-03-16T00:37:07.274Z,7.40
2018-03-16T00:39:35.397Z,7.30
2018-03-16T00:42:03.570Z,7.30
2018-03-16T00:44:32.562Z,7.20
2018-03-16T00:47:01.455Z,7.20
2018-03-16T00:49:29.624Z,7.10
2018-03-16T00:51:58.515Z,7.10
2018-03-16T00:54:26.699Z,7.10
2018-03-16T00:56:54.796Z,7.10
2018-03-16T00:59:23.041Z,7.10
2018-03-16T01:01:51.207Z,7.10
2018-03-16T01:04:19.310Z,7.10
2018-03-16T01:06:47.441Z,7.10
2018-03-16T01:09:15.619Z,7.10
2018-03-16T01:11:43.774Z,7.10
2018-03-16T01:14:11.920Z,7.10
2018-03-16T01:16:40.810Z,7.00
2018-03-16T01:19:08.925Z,7.00
2018-03-16T01:21:37.048Z,7.00
2018-03-16T01:24:05.271Z,7.00
2018-03-16T01:26:34.130Z,6.90
2018-03-16T01:29:03.049Z,6.90
2018-03-16T01:31:31.151Z,6.90
2018-03-16T01:33:59.285Z,6.90
2018-03-16T01:36:27.422Z,6.90
2018-03-16T01:38:55.595Z,6.90
2018-03-16T01:41:24.477Z,6.90
2018-03-16T01:43:52.617Z,6.90
2018-03-16T01:46:20.732Z,6.90
2018-03-16T01:48:49.612Z,6.80
2018-03-16T01:51:17.748Z,6.80
2018-03-16T01:53:45.968Z,6.80
2018-03-16T01:56:14.836Z,6.80
2018-03-16T01:58:43.039Z,6.80
2018-03-16T02:01:11.911Z,6.90
2018-03-16T02:03:40.868Z,6.90
2018-03-16T02:06:08.978Z,6.90
2018-03-16T02:08:37.878Z,6.90
2018-03-16T02:11:06.853Z,6.90
2018-03-16T02:13:35.071Z,6.90
2018-03-16T02:16:03.961Z,7.00
2018-03-16T02:18:32.055Z,6.90
2018-03-16T02:21:00.210Z,6.90
2018-03-16T02:23:28.377Z,7.00
2018-03-16T02:25:57.236Z,7.00
2018-03-16T02:28:25.366Z,7.00
2018-03-16T02:30:53.477Z,7.00
2018-03-16T02:33:22.360Z,6.90
2018-03-16T02:35:51.482Z,7.00
2018-03-16T02:38:19.770Z,7.00
2018-03-16T02:40:47.900Z,6.90
2018-03-16T02:43:16.014Z,6.90
2018-03-16T02:45:44.189Z,6.90
2018-03-16T02:48:12.359Z,6.90
2018-03-16T02:50:40.496Z,6.80
2018-03-16T02:53:09.410Z,6.70
2018-03-16T02:55:37.517Z,6.80
2018-03-16T02:58:05.743Z,6.80
2018-03-16T03:00:34.667Z,6.70
2018-03-16T03:03:02.782Z,6.70
2018-03-16T03:05:31.704Z,6.70
2018-03-16T03:07:59.848Z,6.70
2018-03-16T03:10:28.785Z,6.60
2018-03-16T03:12:56.916Z,6.60
2018-03-16T03:15:25.840Z,6.60
2018-03-16T03:17:53.943Z,6.60
2018-03-16T03:20:22.147Z,6.60
2018-03-16T03:22:51.016Z,6.50
2018-03-16T03:25:19.248Z,6.50
2018-03-16T03:27:48.093Z,6.50
2018-03-16T03:30:16.985Z,6.50
2018-03-16T03:32:45.943Z,6.50
2018-03-16T03:35:14.102Z,6.40
2018-03-16T03:37:42.264Z,6.50
2018-03-16T03:40:10.437Z,6.50
2018-03-16T03:42:39.426Z,6.40
2018-03-16T03:45:08.424Z,6.30
2018-03-16T03:47:36.531Z,6.30
2018-03-16T03:50:04.765Z,6.30
2018-03-16T03:52:33.613Z,6.20
2018-03-16T03:55:02.608Z,6.10
2018-03-16T03:57:31.588Z,6.10
2018-03-16T03:59:59.830Z,6.00
2018-03-16T04:02:27.925Z,6.00
2018-03-16T04:04:56.107Z,6.10
2018-03-16T04:07:24.998Z,6.00
2018-03-16T04:09:53.115Z,6.00
2018-03-16T04:12:21.234Z,6.10
2018-03-16T04:14:49.568Z,6.10
2018-03-16T04:17:18.455Z,6.10
2018-03-16T04:19:47.341Z,6.20
2018-03-16T04:22:15.469Z,6.10
2018-03-16T04:24:44.355Z,6.20
2018-03-16T04:27:12.475Z,6.20
2018-03-16T04:29:40.600Z,6.20
2018-03-16T04:32:08.721Z,6.20
2018-03-16T04:34:36.888Z,6.20
2018-03-16T04:37:05.847Z,6.20
2018-03-16T04:39:34.023Z,6.20
2018-03-16T04:42:02.536Z,6.30
2018-03-16T04:44:30.620Z,6.30
2018-03-16T04:46:58.776Z,6.30
2018-03-16T04:49:27.666Z,6.30
2018-03-16T04:51:56.615Z,6.30
2018-03-16T04:54:24.750Z,6.30
2018-03-16T04:56:52.902Z,6.30
2018-03-16T04:59:21.893Z,6.30
2018-03-16T05:01:50.749Z,6.30
2018-03-16T05:04:19.632Z,6.30
2018-03-16T05:06:48.527Z,6.20
2018-03-16T05:09:16.632Z,6.20
2018-03-16T05:11:44.772Z,6.20
2018-03-16T05:14:13.653Z,6.20
2018-03-16T05:16:42.545Z,6.20
2018-03-16T05:19:10.683Z,6.20
2018-03-16T05:21:38.930Z,6.20
2018-03-16T05:24:07.031Z,6.10
2018-03-16T05:26:35.172Z,6.10
2018-03-16T05:29:03.257Z,6.10
2018-03-16T05:31:31.519Z,6.10
2018-03-16T05:34:00.508Z,6.10
2018-03-16T05:36:28.668Z,6.10
2018-03-16T05:38:57.570Z,6.20
2018-03-16T05:41:26.529Z,6.20
2018-03-16T05:43:55.458Z,6.20
2018-03-16T05:46:23.561Z,6.20
2018-03-16T05:48:51.769Z,6.20
2018-03-16T05:51:20.671Z,6.20
2018-03-16T05:53:49.575Z,6.20
2018-03-16T05:56:18.519Z,6.20
2018-03-16T05:58:46.630Z,6.20
2018-03-16T06:01:15.101Z,6.20
2018-03-16T06:03:43.205Z,6.20
2018-03-16T06:06:11.308Z,6.30
2018-03-16T06:08:39.535Z,6.30
2018-03-16T06:11:08.397Z,6.30
2018-03-16T06:13:37.276Z,6.30
2018-03-16T06:16:06.152Z,6.30
2018-03-16T06:18:35.206Z,6.30
2018-03-16T06:21:03.320Z,6.30
2018-03-16T06:23:31.539Z,6.40
2018-03-16T06:26:00.416Z,6.40
2018-03-16T06:28:28.602Z,6.40
2018-03-16T06:30:57.498Z,6.50
2018-03-16T06:33:25.665Z,6.50
2018-03-16T06:35:54.528Z,6.60
2018-03-16T06:38:22.678Z,6.60
2018-03-16T06:40:51.001Z,6.60
2018-03-16T06:43:19.885Z,6.60
2018-03-16T06:45:48.802Z,6.60
2018-03-16T06:48:16.956Z,6.60
2018-03-16T06:50:45.859Z,6.70
2018-03-16T06:53:14.018Z,6.60
2018-03-16T06:55:42.227Z,6.70
2018-03-16T06:58:10.357Z,6.80
2018-03-16T07:00:38.536Z,6.80
2018-03-16T07:03:07.532Z,6.90
2018-03-16T07:05:35.700Z,6.90
2018-03-16T07:08:04.586Z,7.00
2018-03-16T07:10:33.464Z,7.00
2018-03-16T07:13:01.650Z,7.00
2018-03-16T07:15:35.400Z,7.10
2018-03-16T07:18:03.533Z,7.10
2018-03-16T07:20:31.697Z,7.20
2018-03-16T07:23:00.687Z,7.20
2018-03-16T07:25:29.658Z,7.20
2018-03-16T07:27:58.569Z,7.20
2018-03-16T07:30:27.424Z,7.20
2018-03-16T07:32:56.329Z,7.20
2018-03-16T07:35:24.634Z,7.20
2018-03-16T07:37:52.753Z,7.20
2018-03-16T07:40:21.275Z,7.20
2018-03-16T07:42:50.220Z,7.30
2018-03-16T07:45:18.285Z,7.30
2018-03-16T07:47:46.491Z,7.40
2018-03-16T07:50:14.610Z,7.40
2018-03-16T07:52:42.718Z,7.50
2018-03-16T07:55:11.611Z,7.60
2018-03-16T07:57:40.638Z,7.70
2018-03-16T08:00:08.779Z,7.60
2018-03-16T08:02:37.649Z,7.80
2018-03-16T08:05:06.589Z,7.90
2018-03-16T08:07:34.726Z,7.90
2018-03-16T08:10:03.655Z,8.10
2018-03-16T08:12:31.833Z,8.20
2018-03-16T08:14:59.964Z,8.30
2018-03-16T08:17:28.165Z,8.40
2018-03-16T08:19:57.017Z,8.80
2018-03-16T08:22:25.940Z,9.00
2018-03-16T08:24:54.097Z,9.00
2018-03-16T08:27:22.985Z,9.10
2018-03-16T08:29:51.885Z,9.00
2018-03-16T08:32:20.005Z,9.00
2018-03-16T08:34:48.131Z,9.00
2018-03-16T08:37:16.415Z,8.90
2018-03-16T08:39:46.453Z,8.80
2018-03-16T08:42:14.611Z,8.70
2018-03-16T08:44:42.793Z,8.80
2018-03-16T08:47:10.897Z,8.80
2018-03-16T08:49:39.088Z,8.90
2018-03-16T08:52:07.969Z,9.20
2018-03-16T08:54:36.142Z,9.10
2018-03-16T08:57:04.207Z,9.30
2018-03-16T08:59:32.320Z,9.40
2018-03-16T09:02:00.463Z,9.50
2018-03-16T09:04:29.455Z,9.80
2018-03-16T09:06:58.485Z,9.90
2018-03-16T09:09:26.650Z,9.90
2018-03-16T09:11:55.645Z,10.00
2018-03-16T09:14:23.774Z,10.00
2018-03-16T09:16:52.680Z,10.20
2018-03-16T09:19:20.840Z,10.20
2018-03-16T09:21:49.766Z,10.40
2018-03-16T09:24:17.870Z,10.40
2018-03-16T09:26:46.010Z,10.50
2018-03-16T09:29:14.146Z,10.50
2018-03-16T09:31:43.063Z,10.60
2018-03-16T09:34:11.200Z,10.60
2018-03-16T09:36:40.118Z,10.80
2018-03-16T09:39:08.290Z,10.70
2018-03-16T09:41:36.416Z,10.90
2018-03-16T09:44:04.558Z,11.20
2018-03-16T09:46:32.705Z,11.40
2018-03-16T09:49:00.870Z,11.40
2018-03-16T09:51:29.009Z,11.30
2018-03-16T09:53:57.145Z,11.10
2018-03-16T09:56:25.511Z,11.20
2018-03-16T09:58:53.693Z,11.20
2018-03-16T10:01:21.842Z,11.10
2018-03-16T10:03:50.031Z,11.10
2018-03-16T10:06:18.203Z,10.80
2018-03-16T10:08:46.321Z,10.90
2018-03-16T10:11:14.448Z,10.90
2018-03-16T10:13:42.582Z,10.90
2018-03-16T10:16:11.487Z,10.80
2018-03-16T10:18:39.636Z,10.80
2018-03-16T10:21:08.524Z,10.90
2018-03-16T10:23:37.410Z,10.90
2018-03-16T10:26:06.325Z,10.80
2018-03-16T10:28:34.474Z,10.80
2018-03-16T10:31:02.624Z,10.80
2018-03-16T10:33:30.758Z,10.70
2018-03-16T10:35:58.862Z,10.70
2018-03-16T10:38:27.013Z,10.60
2018-03-16T10:40:55.134Z,10.60
2018-03-16T10:43:23.270Z,10.50
2018-03-16T10:45:51.388Z,10.50
2018-03-16T10:48:20.287Z,10.60
2018-03-16T10:50:49.184Z,10.50
2018-03-16T10:53:17.342Z,10.50
2018-03-16T10:55:46.262Z,10.40
2018-03-16T10:58:14.417Z,10.40
2018-03-16T11:00:48.072Z,10.30
2018-03-16T11:03:16.311Z,10.20
2018-03-16T11:05:50.076Z,10.00
2018-03-16T11:08:24.445Z,9.70
2018-03-16T11:10:52.574Z,9.70
2018-03-16T11:13:21.492Z,9.70
2018-03-16T11:15:50.380Z,9.90
2018-03-16T11:18:18.558Z,9.90
2018-03-16T11:20:46.733Z,10.20
2018-03-16T11:23:14.836Z,10.50
2018-03-16T11:25:42.991Z,10.60
2018-03-16T11:28:11.117Z,10.70
2018-03-16T11:30:39.274Z,10.60
2018-03-16T11:33:09.088Z,10.40
2018-03-16T11:35:38.090Z,10.40
2018-03-16T11:38:07.010Z,10.50
2018-03-16T11:40:35.397Z,10.60
2018-03-16T11:43:03.554Z,10.80
2018-03-16T11:45:31.674Z,10.90
2018-03-16T11:47:59.832Z,11.00
2018-03-16T11:50:27.957Z,11.00
2018-03-16T11:52:56.266Z,10.90
2018-03-16T11:55:24.401Z,10.70
2018-03-16T11:57:52.532Z,10.60
2018-03-16T12:00:20.758Z,10.40
2018-03-16T12:02:48.869Z,10.30
2018-03-16T12:05:17.073Z,10.40
2018-03-16T12:07:45.149Z,10.60
2018-03-16T12:10:14.039Z,11.50
2018-03-16T12:12:42.970Z,11.90
2018-03-16T12:15:11.112Z,11.90
2018-03-16T12:17:39.231Z,12.00
2018-03-16T12:20:07.393Z,12.00
2018-03-16T12:22:35.542Z,12.20
2018-03-16T12:25:03.691Z,12.70
2018-03-16T12:27:31.816Z,12.80
2018-03-16T12:29:59.993Z,12.80
2018-03-16T12:32:28.138Z,12.60
2018-03-16T12:34:56.265Z,12.60
2018-03-16T12:37:25.202Z,12.40
2018-03-16T12:39:53.292Z,12.40
2018-03-16T12:42:21.456Z,12.40
2018-03-16T12:44:49.587Z,12.30
2018-03-16T12:47:18.537Z,11.90
2018-03-16T12:49:46.633Z,11.90
2018-03-16T12:52:15.528Z,11.60
2018-03-16T12:54:44.559Z,11.50
2018-03-16T12:57:12.655Z,11.50
2018-03-16T12:59:40.846Z,11.60
2018-03-16T13:02:09.085Z,11.80
2018-03-16T13:04:37.194Z,11.80
2018-03-16T13:07:05.346Z,11.80
2018-03-16T13:09:33.497Z,11.90
2018-03-16T13:12:01.669Z,11.60
2018-03-16T13:14:29.845Z,11.50
2018-03-16T13:16:58.021Z,11.40
2018-03-16T13:19:26.186Z,11.40
2018-03-16T13:21:54.360Z,11.30
2018-03-16T13:24:22.498Z,11.30
2018-03-16T13:26:50.651Z,11.40
2018-03-16T13:29:18.875Z,11.50
2018-03-16T13:31:47.010Z,11.70
2018-03-16T13:34:15.898Z,12.80
2018-03-16T13:36:44.834Z,14.10
2018-03-16T13:41:43.129Z,14.20
2018-03-16T13:44:11.262Z,14.20
2018-03-16T13:46:40.173Z,13.60
2018-03-16T13:49:09.060Z,13.40
2018-03-16T13:51:37.351Z,13.30
2018-03-16T13:54:05.484Z,13.50
2018-03-16T13:56:33.690Z,14.30
2018-03-16T13:59:01.844Z,14.30
2018-03-16T14:01:30.766Z,14.30
2018-03-16T14:03:58.917Z,14.20
2018-03-16T14:06:27.082Z,15.70
2018-03-16T14:08:55.228Z,16.40
2018-03-16T14:11:24.120Z,14.90
2018-03-16T14:13:53.018Z,15.10
2018-03-16T14:16:21.157Z,15.10
2018-03-16T14:18:49.311Z,17.00
2018-03-16T14:21:17.428Z,19.00
2018-03-16T14:23:46.355Z,20.40
2018-03-16T14:26:14.534Z,20.30
2018-03-16T14:28:42.652Z,21.10
2018-03-16T14:31:10.842Z,22.10
2018-03-16T14:33:39.725Z,23.20
2018-03-16T14:36:07.862Z,23.10
2018-03-16T14:38:36.011Z,24.40
2018-03-16T14:41:04.179Z,24.90
2018-03-16T14:43:32.301Z,24.90
2018-03-16T14:46:00.569Z,24.70
2018-03-16T14:48:28.693Z,23.00
2018-03-16T14:50:56.864Z,20.40
2018-03-16T14:53:25.743Z,17.70
2018-03-16T14:55:53.945Z,17.70
2018-03-16T14:58:22.224Z,16.80
2018-03-16T15:00:50.373Z,15.80
2018-03-16T15:03:19.470Z,13.40
2018-03-16T15:05:47.640Z,13.30
2018-03-16T15:08:15.804Z,12.40
2018-03-16T15:10:43.974Z,11.80
2018-03-16T15:13:12.114Z,11.30
2018-03-16T15:15:41.048Z,10.60
2018-03-16T15:18:10.058Z,10.40
2018-03-16T15:20:38.313Z,10.30
2018-03-16T15:23:06.494Z,10.30
2018-03-16T15:25:34.663Z,10.10
2018-03-16T15:28:02.777Z,10.00
2018-03-16T15:30:30.911Z,10.00
2018-03-16T15:32:59.042Z,9.80
2018-03-16T15:35:27.965Z,9.50
2018-03-16T15:37:56.139Z,9.50
2018-03-16T15:40:24.310Z,9.40
2018-03-16T15:42:53.184Z,9.40
2018-03-16T15:45:22.090Z,9.50
2018-03-16T15:47:50.970Z,9.80
2018-03-16T15:50:19.102Z,9.80
2018-03-16T15:52:47.251Z,10.30
2018-03-16T15:55:15.394Z,10.80
2018-03-16T15:57:43.568Z,11.20
2018-03-16T16:00:11.743Z,11.40
2018-03-16T16:02:39.891Z,11.70
2018-03-16T16:05:08.042Z,12.00
2018-03-16T16:07:36.976Z,12.40
2018-03-16T16:10:05.111Z,12.30
2018-03-16T16:12:33.999Z,12.40
2018-03-16T16:15:02.911Z,12.10
2018-03-16T16:17:31.821Z,11.80
2018-03-16T16:19:59.989Z,11.80
2018-03-16T16:22:28.109Z,11.60
2018-03-16T16:24:56.266Z,11.40
2018-03-16T16:27:24.403Z,11.10
2018-03-16T16:29:52.577Z,10.90
2018-03-16T16:32:20.862Z,10.80
2018-03-16T16:34:49.004Z,10.60
2018-03-16T16:37:18.117Z,10.40
2018-03-16T16:39:46.416Z,10.40
2018-03-16T16:42:14.589Z,10.30
2018-03-16T16:44:42.719Z,10.30
2018-03-16T16:47:10.896Z,10.20
2018-03-16T16:49:39.798Z,10.00
2018-03-16T16:52:07.960Z,10.00
2018-03-16T16:54:36.061Z,9.90
2018-03-16T16:57:04.214Z,9.70
2018-03-16T16:59:33.109Z,9.40
2018-03-16T17:02:01.357Z,9.40
2018-03-16T17:04:29.555Z,9.20
2018-03-16T17:06:57.688Z,9.20
2018-03-16T17:09:25.824Z,9.10
2018-03-16T17:11:53.978Z,9.10
2018-03-16T17:14:22.140Z,9.00
2018-03-16T17:16:50.320Z,9.00
2018-03-16T17:19:18.405Z,8.90
2018-03-16T17:21:46.592Z,8.90
2018-03-16T17:24:14.740Z,8.90
2018-03-16T17:26:42.908Z,8.90
2018-03-16T17:29:11.050Z,8.90
2018-03-16T17:31:39.976Z,8.80
2018-03-16T17:34:08.238Z,8.80
2018-03-16T17:36:36.358Z,8.80
2018-03-16T17:39:04.613Z,8.80
2018-03-16T17:41:32.974Z,8.70
2018-03-16T17:44:01.214Z,8.70
2018-03-16T17:46:30.232Z,8.50
2018-03-16T17:48:58.370Z,8.50
2018-03-16T17:51:27.483Z,8.50
2018-03-16T17:53:55.614Z,8.40
2018-03-16T17:56:23.737Z,8.40
2018-03-16T17:58:51.926Z,8.40
2018-03-16T18:01:20.058Z,8.40
2018-03-16T18:03:48.980Z,8.40
2018-03-16T18:06:17.147Z,8.40
2018-03-16T18:08:45.283Z,8.40
2018-03-16T18:11:14.186Z,8.40
2018-03-16T18:13:43.106Z,8.40
2018-03-16T18:16:11.272Z,8.40
2018-03-16T18:18:39.391Z,8.40
2018-03-16T18:21:07.630Z,8.40
2018-03-16T18:23:35.775Z,8.40
2018-03-16T18:26:04.676Z,8.40
2018-03-16T18:28:32.839Z,8.40
2018-03-16T18:31:01.226Z,8.40
2018-03-16T18:33:29.384Z,8.30
2018-03-16T18:35:57.522Z,8.30
2018-03-16T18:38:25.670Z,8.20
2018-03-16T18:40:57.085Z,8.10
2018-03-16T18:43:25.968Z,8.00
2018-03-16T18:45:54.906Z,7.90
2018-03-16T18:48:23.030Z,7.90
2018-03-16T18:50:51.221Z,7.80
2018-03-16T18:53:19.497Z,7.80
2018-03-16T18:55:47.624Z,7.70
2018-03-16T18:58:16.562Z,7.60
2018-03-16T19:00:44.727Z,7.60
2018-03-16T19:03:13.718Z,7.40
2018-03-16T19:05:41.889Z,7.30
2018-03-16T19:08:10.882Z,7.20
2018-03-16T19:10:39.784Z,7.10
2018-03-16T19:13:07.923Z,7.10
2018-03-16T19:15:36.858Z,7.00
2018-03-16T19:18:05.005Z,7.00
2018-03-16T19:20:33.124Z,7.00
2018-03-16T19:23:01.311Z,7.00
2018-03-16T19:25:29.426Z,7.00
2018-03-16T19:27:57.633Z,6.90
2018-03-16T19:30:25.977Z,6.90
2018-03-16T19:32:54.144Z,6.80
2018-03-16T19:35:22.274Z,6.80
2018-03-16T19:37:50.507Z,6.80
2018-03-16T19:40:19.378Z,6.70
2018-03-16T19:42:47.539Z,6.60
2018-03-16T19:45:15.840Z,6.60
2018-03-16T19:47:43.977Z,6.60
2018-03-16T19:50:12.846Z,6.40
2018-03-16T19:52:41.149Z,6.40
2018-03-16T19:55:10.051Z,6.30
2018-03-16T19:57:38.228Z,6.30
2018-03-16T20:00:06.401Z,6.20
2018-03-16T20:02:34.674Z,6.20
2018-03-16T20:05:02.787Z,6.20
2018-03-16T20:07:30.898Z,6.20
2018-03-16T20:09:59.090Z,6.10
2018-03-16T20:12:27.263Z,6.10
2018-03-16T20:14:55.413Z,6.00
2018-03-16T20:17:23.712Z,6.00
2018-03-16T20:19:52.395Z,5.90
2018-03-16T20:22:22.200Z,5.90
2018-03-16T20:24:50.482Z,5.80
2018-03-16T20:27:18.767Z,5.80
2018-03-16T20:29:46.889Z,5.80
2018-03-16T20:32:15.321Z,5.80
2018-03-16T20:34:43.477Z,5.80
2018-03-16T20:37:11.632Z,5.80
2018-03-16T20:39:41.054Z,5.70
2018-03-16T20:42:09.175Z,5.60
2018-03-16T20:44:37.409Z,5.60
2018-03-16T20:47:05.672Z,5.60
2018-03-16T20:49:34.758Z,5.60
2018-03-16T20:52:03.144Z,5.50
2018-03-16T20:54:31.275Z,5.60
2018-03-16T20:56:59.413Z,5.50
2018-03-16T20:59:27.826Z,5.50
2018-03-16T21:01:56.041Z,5.50
2018-03-16T21:04:25.065Z,5.40
2018-03-16T21:06:53.352Z,5.40
2018-03-16T21:09:21.492Z,5.40
2018-03-16T21:11:49.732Z,5.40
2018-03-16T21:14:18.752Z,5.30
2018-03-16T21:16:46.895Z,5.30
2018-03-16T21:19:15.910Z,5.40
2018-03-16T21:21:44.034Z,5.40
2018-03-16T21:24:12.198Z,5.40
2018-03-16T21:26:40.415Z,5.40
2018-03-16T21:29:09.297Z,5.30
2018-03-16T21:31:38.321Z,5.30
2018-03-16T21:34:06.435Z,5.20
2018-03-16T21:36:35.489Z,5.20
2018-03-16T21:39:03.594Z,5.10
2018-03-16T21:41:31.821Z,5.10
2018-03-16T21:44:00.726Z,5.00
2018-03-16T21:46:28.883Z,5.00
2018-03-16T21:48:57.925Z,4.90
2018-03-16T21:51:26.092Z,4.90
2018-03-16T21:53:54.212Z,5.00
2018-03-16T21:56:22.383Z,5.00
2018-03-16T21:58:50.566Z,5.00
2018-03-16T22:01:41.769Z,5.00
2018-03-16T22:04:09.951Z,4.90
2018-03-16T22:06:38.113Z,4.90
2018-03-16T22:09:06.246Z,4.90
2018-03-16T22:11:34.415Z,4.90
2018-03-16T22:14:03.391Z,4.90
2018-03-16T22:16:32.214Z,4.90
2018-03-16T22:19:00.422Z,4.80
2018-03-16T22:21:28.532Z,4.80
2018-03-16T22:23:56.766Z,4.70
2018-03-16T22:26:25.594Z,4.70
2018-03-16T22:28:53.735Z,4.70
2018-03-16T22:31:21.906Z,4.60
2018-03-16T22:33:50.069Z,4.60
2018-03-16T22:36:18.993Z,4.60
2018-03-16T22:38:47.244Z,4.60
2018-03-16T22:41:15.350Z,4.60
2018-03-16T22:43:44.997Z,4.60
2018-03-16T22:46:13.114Z,4.60
2018-03-16T22:48:41.364Z,4.60
2018-03-16T22:51:09.489Z,4.50
2018-03-16T22:53:37.673Z,4.50
2018-03-16T22:56:07.517Z,4.40
2018-03-16T22:58:36.410Z,4.40
2018-03-16T23:01:05.122Z,4.40
2018-03-16T23:03:33.334Z,4.40
2018-03-16T23:06:02.344Z,4.40
2018-03-16T23:08:31.253Z,4.40
2018-03-16T23:10:59.397Z,4.40
2018-03-16T23:13:28.310Z,4.40
2018-03-16T23:15:57.295Z,4.30
2018-03-16T23:18:25.470Z,4.30
2018-03-16T23:20:54.327Z,4.20
2018-03-16T23:23:23.235Z,4.20
2018-03-16T23:25:51.362Z,4.10
2018-03-16T23:28:19.581Z,4.10
2018-03-16T23:30:48.486Z,4.00
2018-03-16T23:33:16.661Z,4.00
2018-03-16T23:35:44.777Z,4.00
2018-03-16T23:38:13.005Z,4.00
2018-03-16T23:40:41.893Z,3.90
2018-03-16T23:43:10.786Z,3.80
2018-03-16T23:45:38.919Z,3.80
2018-03-16T23:48:07.171Z,3.80
2018-03-16T23:50:35.371Z,3.70
2018-03-16T23:53:04.260Z,3.70
2018-03-16T23:55:33.180Z,3.70
2018-03-16T23:58:01.458Z,3.60
